Time;durP1;ratioP1;P1;durP2;ratioP2;P2;SDS_P1;SDS_P2;PMS_P1;PMS_P2;Temp;Humidity;BMP_temperature;BMP_pressure;BME280_temperature;BME280_humidity;BME280_pressure;Samples;Min_cycle;Max_cycle;Signal;HPM_P1;HPM_P2
2023/12/03 00:00:08;;;;;;;13.65;8.60;;;3.90;77.80;;;;;;5029054;28;20044;-75
2023/12/03 00:02:36;;;;;;;15.15;10.05;;;4.00;77.90;;;;;;5010287;28;20032;-75
2023/12/03 00:05:03;;;;;;;13.60;9.35;;;4.00;77.90;;;;;;5040391;28;20071;-75
2023/12/03 00:07:30;;;;;;;13.18;9.38;;;4.00;77.90;;;;;;5031810;28;20474;-74
2023/12/03 00:09:56;;;;;;;14.75;9.90;;;4.00;77.90;;;;;;5014622;28;20414;-74
2023/12/03 00:12:22;;;;;;;13.30;9.38;;;4.00;77.90;;;;;;5026991;28;20061;-75
2023/12/03 00:14:49;;;;;;;14.05;9.75;;;4.00;77.90;;;;;;5029324;28;20065;-74
2023/12/03 00:17:14;;;;;;;14.73;10.10;;;4.00;77.90;;;;;;5020999;28;20080;-74
2023/12/03 00:19:40;;;;;;;14.35;9.32;;;4.00;77.90;;;;;;5039229;28;20466;-74
2023/12/03 00:22:07;;;;;;;13.88;9.07;;;4.00;77.90;;;;;;5026624;28;20037;-74
2023/12/03 00:24:33;;;;;;;15.35;9.60;;;4.00;77.90;;;;;;5031501;28;20038;-74
2023/12/03 00:26:59;;;;;;;13.25;9.35;;;4.10;78.00;;;;;;5033064;28;20041;-74
2023/12/03 00:29:25;;;;;;;13.90;9.38;;;4.10;77.90;;;;;;5025234;28;20120;-75
2023/12/03 00:31:52;;;;;;;14.30;9.30;;;4.00;77.90;;;;;;5027746;28;20108;-74
2023/12/03 00:34:17;;;;;;;15.27;9.90;;;4.10;77.90;;;;;;5032634;28;20076;-74
2023/12/03 00:36:43;;;;;;;14.93;9.68;;;4.10;77.90;;;;;;5008891;28;20034;-74
2023/12/03 00:39:09;;;;;;;14.82;10.20;;;4.10;77.90;;;;;;5020129;28;20068;-74
2023/12/03 00:41:35;;;;;;;14.82;10.75;;;4.10;77.90;;;;;;5015514;28;20030;-74
2023/12/03 00:44:00;;;;;;;13.68;9.40;;;4.10;77.90;;;;;;5030048;28;20030;-74
2023/12/03 00:46:26;;;;;;;14.80;9.55;;;4.00;77.90;;;;;;5027000;28;20483;-74
2023/12/03 00:48:52;;;;;;;15.02;9.98;;;4.00;77.90;;;;;;5015476;28;20086;-74
2023/12/03 00:51:18;;;;;;;14.63;9.60;;;4.10;77.90;;;;;;5032522;28;20112;-74
2023/12/03 00:53:44;;;;;;;15.93;9.82;;;4.10;77.90;;;;;;5022500;28;20613;-74
2023/12/03 00:56:11;;;;;;;14.75;9.40;;;4.10;77.90;;;;;;5030928;28;20058;-74
2023/12/03 00:58:37;;;;;;;15.10;9.98;;;4.10;78.00;;;;;;5030652;28;20040;-74
2023/12/03 01:01:03;;;;;;;16.08;10.35;;;4.10;78.00;;;;;;5025505;28;20180;-74
2023/12/03 01:03:29;;;;;;;15.02;9.10;;;4.10;78.00;;;;;;5046136;28;20124;-75
2023/12/03 01:05:55;;;;;;;15.77;9.88;;;4.10;77.90;;;;;;5003939;28;20138;-74
2023/12/03 01:08:20;;;;;;;13.98;9.40;;;4.10;78.00;;;;;;5027227;28;20030;-75
2023/12/03 01:10:46;;;;;;;14.13;9.05;;;4.10;77.90;;;;;;5013363;28;20100;-75
2023/12/03 01:13:12;;;;;;;16.77;10.10;;;4.10;78.00;;;;;;5004270;28;20498;-74
2023/12/03 01:15:38;;;;;;;15.05;9.18;;;4.10;77.90;;;;;;5028627;28;20037;-75
2023/12/03 01:18:03;;;;;;;15.30;9.23;;;4.10;77.90;;;;;;5027993;28;20033;-74
2023/12/03 01:20:29;;;;;;;13.43;9.30;;;4.10;77.90;;;;;;5029858;28;20045;-74
2023/12/03 01:22:55;;;;;;;15.60;10.32;;;4.20;78.00;;;;;;5011633;28;20045;-74
2023/12/03 01:25:21;;;;;;;14.38;8.50;;;4.10;77.90;;;;;;5027286;28;20434;-74
2023/12/03 01:27:47;;;;;;;13.65;9.20;;;4.20;78.10;;;;;;5019538;28;20040;-74
2023/12/03 01:30:13;;;;;;;13.82;9.20;;;4.10;77.90;;;;;;5010697;28;20025;-74
2023/12/03 01:32:40;;;;;;;13.98;9.48;;;4.10;77.90;;;;;;5030292;28;20073;-74
2023/12/03 01:35:06;;;;;;;15.38;8.95;;;4.20;78.00;;;;;;5026566;28;20026;-74
2023/12/03 01:37:32;;;;;;;14.10;9.23;;;4.10;78.00;;;;;;5027917;28;20497;-74
2023/12/03 01:39:58;;;;;;;14.63;9.40;;;4.10;78.00;;;;;;5025317;28;20037;-74
2023/12/03 01:42:24;;;;;;;14.70;9.07;;;4.20;78.00;;;;;;5028770;28;20100;-74
2023/12/03 01:44:51;;;;;;;15.65;8.63;;;4.20;78.00;;;;;;5023054;28;20029;-74
2023/12/03 01:47:17;;;;;;;15.57;9.18;;;4.20;78.00;;;;;;5023050;28;20084;-74
2023/12/03 01:49:44;;;;;;;15.13;9.13;;;4.20;78.00;;;;;;5024929;28;20034;-74
2023/12/03 01:52:11;;;;;;;12.88;8.63;;;4.20;78.00;;;;;;5030295;28;20030;-74
2023/12/03 01:54:42;;;;;;;14.57;9.35;;;4.20;78.00;;;;;;5011573;28;20069;-74
2023/12/03 01:57:08;;;;;;;13.80;8.45;;;4.20;78.00;;;;;;5018477;28;20025;-74
2023/12/03 01:59:35;;;;;;;15.23;9.60;;;4.20;78.00;;;;;;5021665;28;20083;-74
2023/12/03 02:02:02;;;;;;;13.30;8.80;;;4.20;78.00;;;;;;5022306;28;20037;-74
2023/12/03 02:04:27;;;;;;;15.38;9.32;;;4.20;78.00;;;;;;5018574;28;20394;-74
2023/12/03 02:06:53;;;;;;;12.45;7.72;;;4.20;78.00;;;;;;5025903;28;20030;-74
2023/12/03 02:09:19;;;;;;;13.50;8.73;;;4.20;78.00;;;;;;5013147;28;20029;-74
2023/12/03 02:11:46;;;;;;;14.73;8.95;;;4.20;78.00;;;;;;5016998;28;20040;-74
2023/12/03 02:14:12;;;;;;;14.02;8.40;;;4.20;78.00;;;;;;5025896;28;20037;-74
2023/12/03 02:16:43;;;;;;;13.18;8.80;;;4.20;78.00;;;;;;5028972;28;20144;-74
2023/12/03 02:19:09;;;;;;;14.75;9.63;;;4.20;78.00;;;;;;5030152;28;20043;-74
2023/12/03 02:21:34;;;;;;;15.90;8.40;;;4.20;78.00;;;;;;5026897;28;20100;-74
2023/12/03 02:24:00;;;;;;;13.82;8.65;;;4.30;78.10;;;;;;5010594;28;20033;-74
2023/12/03 02:26:26;;;;;;;13.60;8.38;;;4.20;78.00;;;;;;5026757;28;20028;-74
2023/12/03 02:28:51;;;;;;;15.25;9.18;;;4.20;78.00;;;;;;5010560;28;20076;-74
2023/12/03 02:31:17;;;;;;;15.25;9.00;;;4.20;78.00;;;;;;5012130;28;20058;-74
2023/12/03 02:33:53;;;;;;;18.17;9.65;;;4.30;78.10;;;;;;5021637;28;20034;-74
2023/12/03 02:36:18;;;;;;;14.95;9.05;;;4.20;78.00;;;;;;5022270;28;20033;-74
2023/12/03 02:38:44;;;;;;;12.80;8.23;;;4.20;78.00;;;;;;5010836;28;20036;-74
2023/12/03 02:41:10;;;;;;;16.88;9.82;;;4.20;78.00;;;;;;5019932;28;20498;-74
2023/12/03 02:43:35;;;;;;;13.95;8.80;;;4.30;78.10;;;;;;5025115;28;20029;-74
2023/12/03 02:46:01;;;;;;;16.58;9.77;;;4.30;78.10;;;;;;5024660;28;20596;-75
2023/12/03 02:48:27;;;;;;;16.27;9.65;;;4.30;78.10;;;;;;5040273;28;20038;-74
2023/12/03 02:50:52;;;;;;;15.93;9.68;;;4.30;78.10;;;;;;5023706;28;20037;-74
2023/12/03 02:53:18;;;;;;;13.93;8.93;;;4.30;78.10;;;;;;5015891;28;20029;-74
2023/12/03 02:55:44;;;;;;;14.23;9.52;;;4.30;78.10;;;;;;5029617;28;20040;-74
2023/12/03 02:58:09;;;;;;;14.02;9.15;;;4.30;78.10;;;;;;5027048;28;20101;-75
2023/12/03 03:00:35;;;;;;;16.02;9.70;;;4.30;78.10;;;;;;5029636;28;20038;-74
2023/12/03 03:03:01;;;;;;;14.48;8.82;;;4.30;78.10;;;;;;5017508;28;20034;-74
2023/12/03 03:05:27;;;;;;;13.68;8.90;;;4.30;78.10;;;;;;5026931;28;20067;-75
2023/12/03 03:07:53;;;;;;;14.90;9.73;;;4.30;78.10;;;;;;5023819;28;20033;-74
2023/12/03 03:10:19;;;;;;;13.38;8.77;;;4.30;78.10;;;;;;5026479;28;20490;-74
2023/12/03 03:12:45;;;;;;;15.52;9.43;;;4.30;78.10;;;;;;5022256;28;20076;-74
2023/12/03 03:15:11;;;;;;;14.45;9.07;;;4.30;78.10;;;;;;5003593;28;20049;-75
2023/12/03 03:17:36;;;;;;;14.57;9.20;;;4.30;78.10;;;;;;5026887;28;20112;-74
2023/12/03 03:20:02;;;;;;;14.98;8.95;;;4.30;78.10;;;;;;5024131;28;20033;-74
2023/12/03 03:22:28;;;;;;;14.98;9.00;;;4.30;78.10;;;;;;5024818;28;20026;-75
2023/12/03 03:24:54;;;;;;;16.02;9.23;;;4.30;78.10;;;;;;5003591;28;20038;-74
2023/12/03 03:27:19;;;;;;;15.50;8.93;;;4.30;78.10;;;;;;5025411;28;20029;-74
2023/12/03 03:29:45;;;;;;;15.00;9.05;;;4.30;78.10;;;;;;5032009;28;20030;-74
2023/12/03 03:32:11;;;;;;;13.27;8.52;;;4.40;78.20;;;;;;5032516;28;20454;-74
2023/12/03 03:34:36;;;;;;;13.48;8.95;;;4.40;78.10;;;;;;5029441;28;20052;-74
2023/12/03 03:37:02;;;;;;;12.35;8.13;;;4.40;78.10;;;;;;5012503;28;20121;-74
2023/12/03 03:39:28;;;;;;;15.13;9.50;;;4.40;78.20;;;;;;5027553;28;20434;-74
2023/12/03 03:41:54;;;;;;;14.65;9.63;;;4.40;78.20;;;;;;5027567;28;20477;-74
2023/12/03 03:44:19;;;;;;;14.93;9.52;;;4.40;78.10;;;;;;5026818;28;20029;-74
2023/12/03 03:46:45;;;;;;;14.25;9.25;;;4.40;78.20;;;;;;5024331;28;20386;-74
2023/12/03 03:49:11;;;;;;;16.58;10.00;;;4.40;78.10;;;;;;5024832;28;20108;-74
2023/12/03 03:51:37;;;;;;;14.50;9.07;;;4.40;78.10;;;;;;5008132;28;20113;-74
2023/12/03 03:54:03;;;;;;;15.85;9.73;;;4.40;78.10;;;;;;5008668;28;20060;-74
2023/12/03 03:56:28;;;;;;;12.65;8.90;;;4.40;78.10;;;;;;5025459;28;20045;-74
2023/12/03 03:58:54;;;;;;;14.52;9.35;;;4.50;78.20;;;;;;5036044;28;20037;-74
2023/12/03 04:01:20;;;;;;;12.15;8.38;;;4.40;78.10;;;;;;5030499;28;20042;-74
2023/12/03 04:03:45;;;;;;;15.07;9.45;;;4.40;78.10;;;;;;5026026;28;20130;-74
2023/12/03 04:06:11;;;;;;;15.05;9.38;;;4.50;78.10;;;;;;5032779;28;20468;-74
2023/12/03 04:08:38;;;;;;;13.77;8.60;;;4.50;78.20;;;;;;5032621;28;20033;-74
2023/12/03 04:11:04;;;;;;;13.98;8.68;;;4.50;78.10;;;;;;5024047;28;20038;-74
2023/12/03 04:13:30;;;;;;;13.77;9.43;;;4.50;78.20;;;;;;5024739;28;20478;-74
2023/12/03 04:15:57;;;;;;;13.27;8.75;;;4.50;78.80;;;;;;5024218;28;20037;-74
2023/12/03 04:18:23;;;;;;;14.20;9.68;;;4.50;78.20;;;;;;5029208;28;20038;-75
2023/12/03 04:20:49;;;;;;;14.82;9.00;;;4.50;78.20;;;;;;5028826;28;20041;-74
2023/12/03 04:23:15;;;;;;;13.80;8.75;;;4.50;78.20;;;;;;5023407;28;20030;-74
2023/12/03 04:25:41;;;;;;;13.30;9.13;;;4.50;78.10;;;;;;5030725;28;20034;-74
2023/12/03 04:28:07;;;;;;;13.77;9.45;;;4.50;78.20;;;;;;5013520;28;20509;-74
2023/12/03 04:30:33;;;;;;;14.73;8.95;;;4.50;78.20;;;;;;5029003;28;20104;-74
2023/12/03 04:32:59;;;;;;;12.95;9.00;;;4.50;78.10;;;;;;5027459;28;20037;-74
2023/12/03 04:35:24;;;;;;;12.15;8.25;;;4.50;78.10;;;;;;5024807;28;20029;-74
2023/12/03 04:37:50;;;;;;;13.27;9.55;;;4.50;78.10;;;;;;5028399;28;20053;-74
2023/12/03 04:40:16;;;;;;;12.70;8.82;;;4.60;78.20;;;;;;5026257;28;20026;-74
2023/12/03 04:42:42;;;;;;;12.60;8.55;;;4.60;78.20;;;;;;5025635;28;20490;-75
2023/12/03 04:45:09;;;;;;;13.05;9.07;;;4.60;78.20;;;;;;5024336;28;20033;-74
2023/12/03 04:47:34;;;;;;;14.18;9.00;;;4.60;78.20;;;;;;5026894;28;20083;-74
2023/12/03 04:50:00;;;;;;;13.25;9.10;;;4.60;78.20;;;;;;5014943;28;20045;-75
2023/12/03 04:52:26;;;;;;;12.45;8.43;;;4.60;78.20;;;;;;5017733;28;20429;-75
2023/12/03 04:54:52;;;;;;;13.73;9.73;;;4.50;78.10;;;;;;5005251;28;20473;-75
2023/12/03 04:57:17;;;;;;;11.98;8.65;;;4.60;78.20;;;;;;5027383;28;20061;-75
2023/12/03 04:59:43;;;;;;;12.07;8.68;;;4.60;78.20;;;;;;5031069;28;20026;-75
2023/12/03 05:02:09;;;;;;;11.52;8.68;;;4.60;78.20;;;;;;5022898;28;20417;-74
2023/12/03 05:04:34;;;;;;;12.43;8.48;;;4.60;78.20;;;;;;5031138;28;20037;-75
2023/12/03 05:07:00;;;;;;;11.40;8.77;;;4.60;78.20;;;;;;5024842;28;20025;-74
2023/12/03 05:09:26;;;;;;;12.75;9.50;;;4.60;78.20;;;;;;5029010;28;20171;-74
2023/12/03 05:11:51;;;;;;;12.05;8.88;;;4.60;78.20;;;;;;5026033;28;20525;-75
2023/12/03 05:14:17;;;;;;;13.73;9.20;;;4.60;78.20;;;;;;5013615;28;20083;-75
2023/12/03 05:16:43;;;;;;;11.55;7.82;;;4.60;78.20;;;;;;5017987;28;20372;-75
2023/12/03 05:19:08;;;;;;;12.38;8.30;;;4.60;78.20;;;;;;5004738;28;20025;-74
2023/12/03 05:21:34;;;;;;;11.32;8.35;;;4.60;78.20;;;;;;5009505;28;20068;-74
2023/12/03 05:24:00;;;;;;;12.55;8.35;;;4.60;78.20;;;;;;5014015;28;20462;-74
2023/12/03 05:26:26;;;;;;;12.45;8.40;;;4.60;78.20;;;;;;5019948;28;20033;-74
2023/12/03 05:28:52;;;;;;;11.20;8.10;;;4.60;78.20;;;;;;5025697;28;20328;-75
2023/12/03 05:31:17;;;;;;;11.52;8.57;;;4.60;78.20;;;;;;5026030;28;20386;-74
2023/12/03 05:33:43;;;;;;;12.13;8.80;;;4.60;78.20;;;;;;5029943;28;20144;-74
2023/12/03 05:36:18;;;;;;;11.70;8.20;;;4.60;78.20;;;;;;5022524;28;20053;-75
2023/12/03 05:38:44;;;;;;;;;;;4.70;78.20;;;;;;5021107;28;20577;-75
2023/12/03 05:41:09;;;;;;;8.63;6.35;;;4.60;78.80;;;;;;5018241;28;19916;-74
2023/12/03 05:43:35;;;;;;;10.88;7.95;;;4.60;78.00;;;;;;5010101;28;20026;-74
2023/12/03 05:46:01;;;;;;;10.93;7.78;;;4.60;78.10;;;;;;5028641;28;20111;-75
2023/12/03 05:48:26;;;;;;;10.77;8.15;;;4.60;78.20;;;;;;5019453;28;20080;-75
2023/12/03 05:50:52;;;;;;;13.43;8.75;;;4.60;78.20;;;;;;5028072;28;20046;-75
2023/12/03 05:53:18;;;;;;;11.15;8.02;;;4.60;78.20;;;;;;5023906;28;20029;-74
2023/12/03 05:55:43;;;;;;;10.77;7.97;;;4.60;78.20;;;;;;5007899;28;20073;-75
2023/12/03 05:58:09;;;;;;;10.43;7.22;;;4.60;78.20;;;;;;5024192;28;20030;-75
2023/12/03 06:00:35;;;;;;;12.65;8.70;;;4.60;78.20;;;;;;5012768;28;20104;-75
2023/12/03 06:03:00;;;;;;;11.77;8.10;;;4.70;78.30;;;;;;5007473;28;20430;-75
2023/12/03 06:05:26;;;;;;;12.52;8.70;;;4.60;78.20;;;;;;5028000;28;20466;-75
2023/12/03 06:07:52;;;;;;;12.05;8.63;;;4.60;78.20;;;;;;5029837;28;20037;-75
2023/12/03 06:10:18;;;;;;;11.68;8.52;;;4.60;78.20;;;;;;5005676;28;20750;-75
2023/12/03 06:12:44;;;;;;;11.48;8.15;;;4.60;78.20;;;;;;4985739;28;20068;-75
2023/12/03 06:15:09;;;;;;;11.57;8.30;;;4.60;78.20;;;;;;5010174;28;20033;-75
2023/12/03 06:17:35;;;;;;;11.10;8.13;;;4.60;78.20;;;;;;5023901;28;20029;-74
2023/12/03 06:20:01;;;;;;;10.95;7.93;;;4.60;78.20;;;;;;5012815;28;20458;-75
2023/12/03 06:22:27;;;;;;;10.60;8.00;;;4.60;78.20;;;;;;5010667;28;20120;-74
2023/12/03 06:24:53;;;;;;;11.30;8.13;;;4.60;78.20;;;;;;5025011;28;20134;-75
2023/12/03 06:27:18;;;;;;;11.02;7.78;;;4.60;78.20;;;;;;5032905;28;20037;-74
2023/12/03 06:29:44;;;;;;;11.23;7.95;;;4.60;78.20;;;;;;5023770;28;20026;-74
2023/12/03 06:32:10;;;;;;;11.57;8.25;;;4.60;78.20;;;;;;5008444;28;20447;-74
2023/12/03 06:34:36;;;;;;;10.95;7.80;;;4.60;78.20;;;;;;5029988;28;20041;-75
2023/12/03 06:37:04;;;;;;;10.27;7.78;;;4.60;78.20;;;;;;5013885;28;20037;-74
2023/12/03 06:39:30;;;;;;;11.88;7.97;;;4.60;78.20;;;;;;5024064;28;20033;-74
2023/12/03 06:41:56;;;;;;;11.50;7.32;;;4.60;78.20;;;;;;5026205;28;20398;-75
2023/12/03 06:44:21;;;;;;;10.55;7.70;;;4.60;78.20;;;;;;5026899;28;20034;-74
2023/12/03 06:46:47;;;;;;;12.05;8.43;;;4.60;78.30;;;;;;5010667;28;20420;-74
2023/12/03 06:49:13;;;;;;;12.98;7.93;;;4.60;78.20;;;;;;5023464;28;20110;-74
2023/12/03 06:51:38;;;;;;;10.30;7.55;;;4.50;78.20;;;;;;5025723;28;20053;-74
2023/12/03 06:54:04;;;;;;;12.38;8.07;;;4.50;78.20;;;;;;5021839;28;20069;-74
2023/12/03 06:56:30;;;;;;;10.48;7.45;;;4.50;78.20;;;;;;5047845;28;20414;-74
2023/12/03 06:58:55;;;;;;;11.75;7.78;;;4.50;78.20;;;;;;5010739;28;20307;-74
2023/12/03 07:01:21;;;;;;;10.43;7.97;;;4.50;78.20;;;;;;5019081;28;20073;-74
2023/12/03 07:03:47;;;;;;;11.40;7.97;;;4.50;78.20;;;;;;5046708;28;20053;-74
2023/12/03 07:06:13;;;;;;;12.20;8.18;;;4.50;78.30;;;;;;5006527;28;20490;-74
2023/12/03 07:08:38;;;;;;;12.35;8.25;;;4.40;78.20;;;;;;5012795;28;20474;-74
2023/12/03 07:11:04;;;;;;;11.65;8.43;;;4.40;78.20;;;;;;5009974;28;20040;-74
2023/12/03 07:13:30;;;;;;;11.13;8.20;;;4.40;78.20;;;;;;5024646;28;20029;-74
2023/12/03 07:15:56;;;;;;;12.00;8.75;;;4.40;78.20;;;;;;5027125;28;20049;-74
2023/12/03 07:18:21;;;;;;;11.60;7.97;;;4.40;78.20;;;;;;5036277;28;20104;-74
2023/12/03 07:20:47;;;;;;;11.73;8.20;;;4.40;78.20;;;;;;5009287;28;20506;-74
2023/12/03 07:23:13;;;;;;;13.02;8.63;;;4.40;78.30;;;;;;5024179;28;20030;-74
2023/12/03 07:25:38;;;;;;;11.75;8.48;;;4.30;78.20;;;;;;5002797;28;20576;-74
2023/12/03 07:28:04;;;;;;;12.40;8.05;;;4.40;78.20;;;;;;5009622;28;20038;-74
2023/12/03 07:30:30;;;;;;;11.80;8.32;;;4.30;78.20;;;;;;5005237;28;20022;-74
2023/12/03 07:32:56;;;;;;;11.63;8.00;;;4.30;78.20;;;;;;5027992;28;20124;-74
2023/12/03 07:35:21;;;;;;;11.73;8.82;;;4.30;78.20;;;;;;5035749;28;20483;-75
2023/12/03 07:37:47;;;;;;;11.90;8.45;;;4.30;78.20;;;;;;5011188;28;20363;-75
2023/12/03 07:40:13;;;;;;;12.80;8.45;;;4.30;78.20;;;;;;5009995;28;20446;-74
2023/12/03 07:42:40;;;;;;;12.02;8.27;;;4.30;78.30;;;;;;5037313;28;20054;-74
2023/12/03 07:45:06;;;;;;;12.63;8.65;;;4.30;78.30;;;;;;5015472;28;20034;-74
2023/12/03 07:47:32;;;;;;;12.70;8.88;;;4.20;78.30;;;;;;5023537;28;20040;-74
2023/12/03 07:49:59;;;;;;;11.88;8.27;;;4.20;78.30;;;;;;5026424;28;20041;-74
2023/12/03 07:52:26;;;;;;;12.90;9.50;;;4.20;78.30;;;;;;5046535;28;20033;-74
2023/12/03 07:54:52;;;;;;;14.48;9.18;;;4.20;78.30;;;;;;5027562;28;20441;-74
2023/12/03 07:57:18;;;;;;;13.80;8.95;;;4.20;78.30;;;;;;5026912;28;20037;-74
2023/12/03 07:59:44;;;;;;;13.35;8.90;;;4.20;78.30;;;;;;5002469;28;20068;-75
2023/12/03 08:02:10;;;;;;;13.32;8.80;;;4.10;78.20;;;;;;5025273;28;20050;-74
2023/12/03 08:04:35;;;;;;;12.77;8.82;;;4.10;78.20;;;;;;5013522;28;20060;-74
2023/12/03 08:07:01;;;;;;;14.73;8.70;;;4.10;78.30;;;;;;5019741;28;20030;-74
2023/12/03 08:09:27;;;;;;;14.35;9.30;;;4.10;78.20;;;;;;5059959;28;20021;-74
2023/12/03 08:11:53;;;;;;;12.40;8.52;;;4.10;78.90;;;;;;5010126;28;20034;-74
2023/12/03 08:14:19;;;;;;;13.52;8.52;;;4.10;78.30;;;;;;4995026;28;20077;-74
2023/12/03 08:16:44;;;;;;;13.55;9.43;;;4.10;78.30;;;;;;5033081;28;20451;-74
2023/12/03 08:19:10;;;;;;;13.65;9.57;;;4.10;78.30;;;;;;5030678;28;20475;-74
2023/12/03 08:21:36;;;;;;;13.20;8.68;;;4.10;78.20;;;;;;5028593;28;20048;-74
2023/12/03 08:24:03;;;;;;;12.50;8.43;;;4.00;78.20;;;;;;5063941;28;20029;-74
2023/12/03 08:26:29;;;;;;;13.40;8.48;;;4.00;78.20;;;;;;5025707;28;20032;-74
2023/12/03 08:28:55;;;;;;;13.07;8.50;;;4.00;78.20;;;;;;5029521;28;20041;-74
2023/12/03 08:31:22;;;;;;;12.48;8.25;;;3.90;78.20;;;;;;5028410;28;20477;-74
2023/12/03 08:33:49;;;;;;;14.93;9.43;;;3.90;78.20;;;;;;5030494;28;20498;-74
2023/12/03 08:36:18;;;;;;;12.07;8.75;;;3.90;78.20;;;;;;4997432;28;20053;-74
2023/12/03 08:38:45;;;;;;;13.13;7.93;;;3.90;78.20;;;;;;5031015;28;20044;-75
2023/12/03 08:41:10;;;;;;;13.38;8.88;;;4.00;78.30;;;;;;5054684;28;20026;-74
2023/12/03 08:43:36;;;;;;;12.88;8.48;;;3.90;78.20;;;;;;5014164;28;20101;-76
2023/12/03 08:46:02;;;;;;;11.90;8.77;;;3.90;78.30;;;;;;5016242;28;20440;-76
2023/12/03 08:48:28;;;;;;;13.65;9.15;;;3.90;78.20;;;;;;5022881;28;20029;-75
2023/12/03 08:50:53;;;;;;;11.68;8.23;;;3.90;78.30;;;;;;5029840;28;20055;-73
2023/12/03 08:53:19;;;;;;;14.27;8.65;;;3.90;78.30;;;;;;5032993;28;20036;-74
2023/12/03 08:55:45;;;;;;;12.82;8.00;;;3.90;78.20;;;;;;4999796;28;20068;-74
2023/12/03 08:58:10;;;;;;;13.02;8.88;;;3.80;78.20;;;;;;5028671;28;20124;-76
2023/12/03 09:00:36;;;;;;;14.68;9.40;;;3.90;78.30;;;;;;5011393;28;20382;-75
2023/12/03 09:03:03;;;;;;;13.27;8.55;;;3.90;78.20;;;;;;5027947;28;20083;-76
2023/12/03 09:05:29;;;;;;;12.07;8.13;;;3.80;78.20;;;;;;5032398;28;20045;-76
2023/12/03 09:07:54;;;;;;;13.30;8.48;;;3.80;78.20;;;;;;5020818;28;20082;-75
2023/12/03 09:10:20;;;;;;;12.13;8.30;;;3.80;78.20;;;;;;5031619;28;20029;-75
2023/12/03 09:12:46;;;;;;;11.35;8.10;;;3.80;78.20;;;;;;5029925;28;20033;-73
2023/12/03 09:15:12;;;;;;;10.38;7.50;;;3.80;78.20;;;;;;5041031;28;20034;-74
2023/12/03 09:17:37;;;;;;;12.65;8.38;;;3.80;78.20;;;;;;5031817;28;20108;-75
2023/12/03 09:20:04;;;;;;;12.48;8.20;;;3.80;78.20;;;;;;5026308;28;20112;-76
2023/12/03 09:22:29;;;;;;;13.40;8.70;;;3.80;78.20;;;;;;5031240;28;20037;-77
2023/12/03 09:24:55;;;;;;;12.63;8.55;;;3.80;78.20;;;;;;5026666;28;20398;-75
2023/12/03 09:27:21;;;;;;;14.43;8.80;;;3.80;78.20;;;;;;5029767;28;20057;-75
2023/12/03 09:29:46;;;;;;;10.27;7.32;;;3.80;78.20;;;;;;5020437;28;20598;-74
2023/12/03 09:32:12;;;;;;;11.98;7.90;;;3.80;78.10;;;;;;5027710;28;20037;-74
2023/12/03 09:34:38;;;;;;;11.68;7.72;;;3.80;78.10;;;;;;5024949;28;20084;-74
2023/12/03 09:37:03;;;;;;;11.98;8.15;;;3.90;78.20;;;;;;5027466;28;20037;-74
2023/12/03 09:39:29;;;;;;;12.27;8.07;;;3.80;78.10;;;;;;5024831;28;20040;-73
2023/12/03 09:41:59;;;;;;;12.90;7.88;;;3.80;78.10;;;;;;5024332;28;20051;-74
2023/12/03 09:44:28;;;;;;;11.63;7.97;;;3.80;78.10;;;;;;5031207;28;20025;-76
2023/12/03 09:46:54;;;;;;;11.13;7.85;;;3.80;78.10;;;;;;5023977;28;20068;-74
2023/12/03 09:49:24;;;;;;;12.77;8.13;;;3.80;78.10;;;;;;5025949;28;20030;-74
2023/12/03 09:51:50;;;;;;;12.98;8.48;;;3.90;78.20;;;;;;5028117;28;20030;-74
2023/12/03 09:54:16;;;;;;;11.82;7.90;;;3.90;78.20;;;;;;5030743;28;20104;-74
2023/12/03 09:56:44;;;;;;;11.95;8.35;;;3.80;78.10;;;;;;5006696;28;20073;-74
2023/12/03 09:59:10;;;;;;;12.77;8.15;;;3.90;78.20;;;;;;5027791;28;20032;-74
2023/12/03 10:01:40;;;;;;;11.25;7.85;;;3.90;78.20;;;;;;5028059;28;20041;-74
2023/12/03 10:04:06;;;;;;;10.35;7.43;;;3.90;78.20;;;;;;5023440;28;20056;-74
2023/12/03 10:06:34;;;;;;;12.15;8.30;;;3.90;78.20;;;;;;5036198;28;20470;-74
2023/12/03 10:09:03;;;;;;;11.73;7.80;;;3.90;78.20;;;;;;5024714;28;20455;-74
2023/12/03 10:11:38;;;;;;;11.85;8.05;;;3.90;78.20;;;;;;5032167;28;20053;-74
2023/12/03 10:14:06;;;;;;;12.15;7.93;;;4.00;78.30;;;;;;5029407;28;20021;-74
2023/12/03 10:16:33;;;;;;;11.95;7.43;;;3.90;78.20;;;;;;5020975;28;20112;-74
2023/12/03 10:18:59;;;;;;;12.15;7.85;;;3.90;78.20;;;;;;5014976;28;20117;-74
2023/12/03 10:21:25;;;;;;;10.68;7.68;;;3.90;78.20;;;;;;5005177;28;20116;-74
2023/12/03 10:24:03;;;;;;;12.55;8.10;;;3.90;78.20;;;;;;5025217;28;20374;-73
2023/12/03 10:26:29;;;;;;;11.82;7.57;;;4.00;78.30;;;;;;5011068;28;20487;-74
2023/12/03 10:28:55;;;;;;;10.98;7.82;;;3.90;78.20;;;;;;5021354;28;20030;-74
2023/12/03 10:31:21;;;;;;;11.73;7.88;;;4.00;78.30;;;;;;5029148;28;20120;-74
2023/12/03 10:33:47;;;;;;;10.13;6.80;;;4.00;78.30;;;;;;5010594;28;20068;-74
2023/12/03 10:36:13;;;;;;;10.85;7.43;;;4.00;78.30;;;;;;5051506;28;20106;-74
2023/12/03 10:38:41;;;;;;;11.13;7.55;;;4.00;78.20;;;;;;5022615;28;20112;-75
2023/12/03 10:41:08;;;;;;;10.82;7.43;;;4.00;78.30;;;;;;5020212;28;20033;-73
2023/12/03 10:43:35;;;;;;;11.88;7.47;;;4.10;78.30;;;;;;5022271;28;20508;-74
2023/12/03 10:46:04;;;;;;;10.77;7.13;;;4.10;78.30;;;;;;5030458;28;20033;-74
2023/12/03 10:48:33;;;;;;;10.57;7.13;;;4.00;78.30;;;;;;5007256;28;20044;-73
2023/12/03 10:51:12;;;;;;;10.43;6.70;;;4.00;78.30;;;;;;5043729;28;20109;-73
2023/12/03 10:53:38;;;;;;;11.27;7.35;;;4.00;78.30;;;;;;5045710;28;20107;-73
2023/12/03 10:56:08;;;;;;;10.35;6.57;;;4.10;78.30;;;;;;5016389;28;20064;-74
2023/12/03 10:58:39;;;;;;;10.88;6.90;;;4.10;78.30;;;;;;5038588;28;20099;-74
2023/12/03 11:01:30;;;;;;;10.45;7.45;;;4.10;78.30;;;;;;5021186;28;20128;-73
2023/12/03 11:04:02;;;;;;;10.38;6.82;;;4.10;78.30;;;;;;5027311;28;20033;-73
2023/12/03 11:06:32;;;;;;;10.77;7.20;;;4.10;78.30;;;;;;5029038;28;20095;-74
2023/12/03 11:08:58;;;;;;;11.07;7.10;;;4.10;78.30;;;;;;5011313;28;20566;-74
2023/12/03 11:11:25;;;;;;;10.38;7.47;;;4.10;78.30;;;;;;5023152;28;20100;-74
2023/12/03 11:13:53;;;;;;;11.02;6.97;;;4.20;78.30;;;;;;5040604;28;20053;-74
2023/12/03 11:16:19;;;;;;;10.55;6.95;;;4.10;78.30;;;;;;5049791;28;20112;-74
2023/12/03 11:18:48;;;;;;;9.98;6.60;;;4.20;78.40;;;;;;5017186;28;20113;-74
2023/12/03 11:21:27;;;;;;;9.80;6.75;;;4.20;78.40;;;;;;5028330;28;20047;-75
2023/12/03 11:24:16;;;;;;;10.38;7.13;;;4.20;78.40;;;;;;5025775;28;20022;-74
2023/12/03 11:26:42;;;;;;;10.07;6.55;;;4.20;78.40;;;;;;5029136;28;20048;-74
2023/12/03 11:29:08;;;;;;;9.38;6.53;;;4.20;78.30;;;;;;5014069;28;20087;-73
2023/12/03 11:31:34;;;;;;;10.18;6.90;;;4.20;78.40;;;;;;5019365;28;20428;-73
2023/12/03 11:34:00;;;;;;;10.80;6.60;;;4.20;78.30;;;;;;5025371;28;20466;-74
2023/12/03 11:36:42;;;;;;;10.75;7.07;;;4.20;78.30;;;;;;5025401;28;20080;-73
2023/12/03 11:39:08;;;;;;;10.48;7.07;;;4.30;78.50;;;;;;5021833;28;20097;-73
2023/12/03 11:41:37;;;;;;;11.40;6.53;;;4.20;78.30;;;;;;5050529;28;20042;-73
2023/12/03 11:44:19;;;;;;;9.90;6.25;;;4.30;78.40;;;;;;5023532;28;20037;-74
2023/12/03 11:47:07;;;;;;;9.13;5.97;;;4.30;78.50;;;;;;5029727;28;20504;-73
2023/12/03 11:49:35;;;;;;;8.35;5.75;;;4.30;78.40;;;;;;5028814;28;20536;-74
2023/12/03 11:52:01;;;;;;;10.20;6.57;;;4.30;78.40;;;;;;5019748;28;20026;-73
2023/12/03 11:54:49;;;;;;;9.57;6.38;;;4.30;78.40;;;;;;5010985;28;20128;-74
2023/12/03 11:57:15;;;;;;;9.73;6.18;;;4.30;78.50;;;;;;5041943;28;20032;-73
2023/12/03 11:59:44;;;;;;;9.32;6.63;;;4.30;78.40;;;;;;5027710;28;20535;-73
2023/12/03 12:02:10;;;;;;;10.07;6.45;;;4.40;78.50;;;;;;5026141;28;20470;-74
2023/12/03 12:04:36;;;;;;;10.30;6.57;;;4.30;78.40;;;;;;5022888;28;20163;-74
2023/12/03 12:07:16;;;;;;;9.52;6.30;;;4.40;78.50;;;;;;5024384;28;20456;-73
2023/12/03 12:09:45;;;;;;;10.15;6.15;;;4.40;78.50;;;;;;5015482;28;20458;-74
2023/12/03 12:12:11;;;;;;;9.52;6.32;;;4.40;78.40;;;;;;5025763;28;20029;-74
2023/12/03 12:14:38;;;;;;;9.25;6.65;;;4.40;78.40;;;;;;5024620;28;20500;-75
2023/12/03 12:17:08;;;;;;;9.65;6.65;;;4.40;78.40;;;;;;5025095;28;20112;-74
2023/12/03 12:19:34;;;;;;;10.18;6.45;;;4.50;79.10;;;;;;5026542;28;20112;-74
2023/12/03 12:22:00;;;;;;;8.80;5.60;;;4.50;78.40;;;;;;5026928;28;20146;-74
2023/12/03 12:24:26;;;;;;;9.50;6.47;;;4.50;78.40;;;;;;5025736;28;20239;-75
2023/12/03 12:26:54;;;;;;;9.20;6.53;;;4.50;78.40;;;;;;5025820;28;20037;-74
2023/12/03 12:29:21;;;;;;;9.13;5.85;;;4.50;78.40;;;;;;5025302;28;20052;-74
2023/12/03 12:31:47;;;;;;;9.40;6.35;;;4.60;78.50;;;;;;5025066;28;20034;-74
2023/12/03 12:34:13;;;;;;;9.57;6.18;;;4.60;78.40;;;;;;5022853;28;20038;-73
2023/12/03 12:36:43;;;;;;;8.68;5.72;;;4.60;78.40;;;;;;5015757;28;20025;-74
2023/12/03 12:39:26;;;;;;;8.75;5.93;;;4.60;78.40;;;;;;5025069;28;20030;-73
2023/12/03 12:41:52;;;;;;;9.77;6.45;;;4.70;78.50;;;;;;5025232;28;20037;-73
2023/12/03 12:44:18;;;;;;;9.15;5.75;;;4.70;78.40;;;;;;5023140;28;20040;-73